sensor_id;sensor_type;location;lat;lon;timestamp;P1;durP1;ratioP1;P2;durP2;ratioP2
47161;SDS011;32921;53.256;8.198;2023-03-01T00:01:59;51.90;;;26.02;;
47161;SDS011;32921;53.256;8.198;2023-03-01T00:04:25;53.63;;;25.98;;
47161;SDS011;32921;53.256;8.198;2023-03-01T00:06:50;55.67;;;25.63;;
47161;SDS011;32921;53.256;8.198;2023-03-01T00:09:16;58.85;;;26.52;;
47161;SDS011;32921;53.256;8.198;2023-03-01T00:11:42;57.70;;;27.20;;
47161;SDS011;32921;53.256;8.198;2023-03-01T00:14:08;54.60;;;26.80;;
47161;SDS011;32921;53.256;8.198;2023-03-01T00:16:35;55.70;;;27.35;;
47161;SDS011;32921;53.256;8.198;2023-03-01T00:19:04;55.25;;;27.02;;
47161;SDS011;32921;53.256;8.198;2023-03-01T00:21:30;63.70;;;28.50;;
47161;SDS011;32921;53.256;8.198;2023-03-01T00:23:56;61.13;;;29.77;;
47161;SDS011;32921;53.256;8.198;2023-03-01T00:26:22;57.20;;;28.70;;
47161;SDS011;32921;53.256;8.198;2023-03-01T00:28:49;55.75;;;28.05;;
47161;SDS011;32921;53.256;8.198;2023-03-01T00:31:19;60.17;;;29.38;;
47161;SDS011;32921;53.256;8.198;2023-03-01T00:33:48;59.35;;;28.88;;
47161;SDS011;32921;53.256;8.198;2023-03-01T00:36:21;56.17;;;28.67;;
47161;SDS011;32921;53.256;8.198;2023-03-01T00:38:47;56.30;;;28.10;;
47161;SDS011;32921;53.256;8.198;2023-03-01T00:41:14;54.65;;;27.23;;
47161;SDS011;32921;53.256;8.198;2023-03-01T00:43:41;53.83;;;26.63;;
47161;SDS011;32921;53.256;8.198;2023-03-01T00:46:08;60.38;;;27.73;;
47161;SDS011;32921;53.256;8.198;2023-03-01T00:48:39;60.45;;;29.60;;
47161;SDS011;32921;53.256;8.198;2023-03-01T00:53:32;62.70;;;28.88;;
47161;SDS011;32921;53.256;8.198;2023-03-01T00:55:58;59.53;;;27.63;;
47161;SDS011;32921;53.256;8.198;2023-03-01T00:58:23;54.20;;;26.75;;
47161;SDS011;32921;53.256;8.198;2023-03-01T01:00:49;66.10;;;29.20;;
47161;SDS011;32921;53.256;8.198;2023-03-01T01:03:15;59.13;;;28.02;;
47161;SDS011;32921;53.256;8.198;2023-03-01T01:05:40;52.50;;;25.05;;
47161;SDS011;32921;53.256;8.198;2023-03-01T01:08:06;52.17;;;26.20;;
47161;SDS011;32921;53.256;8.198;2023-03-01T01:10:33;51.92;;;25.98;;
47161;SDS011;32921;53.256;8.198;2023-03-01T01:12:59;57.70;;;24.65;;
47161;SDS011;32921;53.256;8.198;2023-03-01T01:15:24;42.50;;;23.08;;
47161;SDS011;32921;53.256;8.198;2023-03-01T01:17:50;50.92;;;24.77;;
47161;SDS011;32921;53.256;8.198;2023-03-01T01:20:16;51.15;;;24.83;;
47161;SDS011;32921;53.256;8.198;2023-03-01T01:22:42;51.75;;;24.98;;
47161;SDS011;32921;53.256;8.198;2023-03-01T01:25:07;48.85;;;24.60;;
47161;SDS011;32921;53.256;8.198;2023-03-01T01:27:33;51.97;;;24.42;;
47161;SDS011;32921;53.256;8.198;2023-03-01T01:29:59;53.30;;;23.98;;
47161;SDS011;32921;53.256;8.198;2023-03-01T01:32:25;48.75;;;24.40;;
47161;SDS011;32921;53.256;8.198;2023-03-01T01:34:50;48.00;;;24.60;;
47161;SDS011;32921;53.256;8.198;2023-03-01T01:37:16;53.25;;;25.60;;
47161;SDS011;32921;53.256;8.198;2023-03-01T01:39:41;55.72;;;25.73;;
47161;SDS011;32921;53.256;8.198;2023-03-01T01:42:12;53.22;;;24.50;;
47161;SDS011;32921;53.256;8.198;2023-03-01T01:44:42;55.50;;;25.25;;
47161;SDS011;32921;53.256;8.198;2023-03-01T01:47:14;55.92;;;23.70;;
47161;SDS011;32921;53.256;8.198;2023-03-01T01:49:55;62.05;;;22.92;;
47161;SDS011;32921;53.256;8.198;2023-03-01T01:54:49;66.03;;;27.00;;
47161;SDS011;32921;53.256;8.198;2023-03-01T01:57:23;54.65;;;21.38;;
47161;SDS011;32921;53.256;8.198;2023-03-01T01:59:55;66.90;;;27.27;;
47161;SDS011;32921;53.256;8.198;2023-03-01T02:02:24;63.03;;;26.73;;
47161;SDS011;32921;53.256;8.198;2023-03-01T02:05:04;62.30;;;27.30;;
47161;SDS011;32921;53.256;8.198;2023-03-01T02:07:38;59.28;;;27.30;;
47161;SDS011;32921;53.256;8.198;2023-03-01T02:10:05;65.10;;;27.23;;
47161;SDS011;32921;53.256;8.198;2023-03-01T02:12:31;66.57;;;27.55;;
47161;SDS011;32921;53.256;8.198;2023-03-01T02:14:58;66.93;;;28.05;;
47161;SDS011;32921;53.256;8.198;2023-03-01T02:17:24;58.75;;;25.42;;
47161;SDS011;32921;53.256;8.198;2023-03-01T02:20:13;65.68;;;26.88;;
47161;SDS011;32921;53.256;8.198;2023-03-01T02:22:47;55.83;;;25.08;;
47161;SDS011;32921;53.256;8.198;2023-03-01T02:30:35;65.38;;;27.17;;
47161;SDS011;32921;53.256;8.198;2023-03-01T02:33:02;55.08;;;25.65;;
47161;SDS011;32921;53.256;8.198;2023-03-01T02:35:29;54.85;;;26.00;;
47161;SDS011;32921;53.256;8.198;2023-03-01T02:37:57;54.17;;;25.10;;
47161;SDS011;32921;53.256;8.198;2023-03-01T02:40:25;54.00;;;23.98;;
47161;SDS011;32921;53.256;8.198;2023-03-01T02:42:55;51.63;;;23.38;;
47161;SDS011;32921;53.256;8.198;2023-03-01T02:45:23;50.58;;;22.48;;
47161;SDS011;32921;53.256;8.198;2023-03-01T02:47:53;46.38;;;23.10;;
47161;SDS011;32921;53.256;8.198;2023-03-01T02:50:25;43.90;;;21.95;;
47161;SDS011;32921;53.256;8.198;2023-03-01T02:53:01;46.92;;;22.95;;
47161;SDS011;32921;53.256;8.198;2023-03-01T02:55:58;45.38;;;22.23;;
47161;SDS011;32921;53.256;8.198;2023-03-01T02:58:24;48.38;;;22.23;;
47161;SDS011;32921;53.256;8.198;2023-03-01T03:00:49;42.13;;;21.70;;
47161;SDS011;32921;53.256;8.198;2023-03-01T03:03:19;42.20;;;22.35;;
47161;SDS011;32921;53.256;8.198;2023-03-01T03:05:46;40.95;;;21.67;;
47161;SDS011;32921;53.256;8.198;2023-03-01T03:08:13;35.45;;;20.52;;
47161;SDS011;32921;53.256;8.198;2023-03-01T03:10:41;37.38;;;21.65;;
47161;SDS011;32921;53.256;8.198;2023-03-01T03:13:11;37.85;;;21.75;;
47161;SDS011;32921;53.256;8.198;2023-03-01T03:15:38;41.08;;;22.42;;
47161;SDS011;32921;53.256;8.198;2023-03-01T03:18:06;38.97;;;21.35;;
47161;SDS011;32921;53.256;8.198;2023-03-01T03:20:34;37.35;;;21.60;;
47161;SDS011;32921;53.256;8.198;2023-03-01T03:23:02;44.85;;;22.17;;
47161;SDS011;32921;53.256;8.198;2023-03-01T03:25:28;42.20;;;22.52;;
47161;SDS011;32921;53.256;8.198;2023-03-01T03:27:54;40.95;;;23.05;;
47161;SDS011;32921;53.256;8.198;2023-03-01T03:30:25;43.22;;;22.45;;
47161;SDS011;32921;53.256;8.198;2023-03-01T03:32:55;45.40;;;23.48;;
47161;SDS011;32921;53.256;8.198;2023-03-01T03:35:23;44.20;;;24.05;;
47161;SDS011;32921;53.256;8.198;2023-03-01T03:37:50;38.17;;;21.35;;
47161;SDS011;32921;53.256;8.198;2023-03-01T03:40:30;47.50;;;24.65;;
47161;SDS011;32921;53.256;8.198;2023-03-01T03:43:01;49.85;;;23.80;;
47161;SDS011;32921;53.256;8.198;2023-03-01T03:45:28;48.83;;;23.77;;
47161;SDS011;32921;53.256;8.198;2023-03-01T03:47:53;45.17;;;23.50;;
47161;SDS011;32921;53.256;8.198;2023-03-01T03:50:19;48.50;;;24.88;;
47161;SDS011;32921;53.256;8.198;2023-03-01T03:52:44;43.92;;;23.75;;
47161;SDS011;32921;53.256;8.198;2023-03-01T03:55:11;43.78;;;21.80;;
47161;SDS011;32921;53.256;8.198;2023-03-01T03:57:37;46.03;;;23.13;;
47161;SDS011;32921;53.256;8.198;2023-03-01T04:00:04;45.63;;;23.38;;
47161;SDS011;32921;53.256;8.198;2023-03-01T04:02:37;46.17;;;23.45;;
47161;SDS011;32921;53.256;8.198;2023-03-01T04:05:04;46.03;;;22.73;;
47161;SDS011;32921;53.256;8.198;2023-03-01T04:07:29;45.85;;;23.60;;
47161;SDS011;32921;53.256;8.198;2023-03-01T04:09:55;46.83;;;23.50;;
47161;SDS011;32921;53.256;8.198;2023-03-01T04:12:21;43.95;;;23.48;;
47161;SDS011;32921;53.256;8.198;2023-03-01T04:14:47;44.88;;;22.27;;
47161;SDS011;32921;53.256;8.198;2023-03-01T04:17:13;45.08;;;22.45;;
47161;SDS011;32921;53.256;8.198;2023-03-01T04:19:39;40.63;;;22.58;;
47161;SDS011;32921;53.256;8.198;2023-03-01T04:22:05;43.47;;;22.25;;
47161;SDS011;32921;53.256;8.198;2023-03-01T04:24:34;45.20;;;22.80;;
47161;SDS011;32921;53.256;8.198;2023-03-01T04:27:00;47.70;;;23.77;;
47161;SDS011;32921;53.256;8.198;2023-03-01T04:29:26;46.78;;;23.60;;
47161;SDS011;32921;53.256;8.198;2023-03-01T04:31:51;47.15;;;24.77;;
47161;SDS011;32921;53.256;8.198;2023-03-01T04:34:17;46.13;;;23.73;;
47161;SDS011;32921;53.256;8.198;2023-03-01T04:36:43;46.65;;;23.63;;
47161;SDS011;32921;53.256;8.198;2023-03-01T04:39:08;41.75;;;23.67;;
47161;SDS011;32921;53.256;8.198;2023-03-01T04:41:37;50.45;;;24.80;;
47161;SDS011;32921;53.256;8.198;2023-03-01T04:44:04;48.25;;;23.75;;
47161;SDS011;32921;53.256;8.198;2023-03-01T04:46:30;52.60;;;25.05;;
47161;SDS011;32921;53.256;8.198;2023-03-01T04:48:55;43.38;;;23.88;;
47161;SDS011;32921;53.256;8.198;2023-03-01T04:51:21;56.30;;;25.38;;
47161;SDS011;32921;53.256;8.198;2023-03-01T04:53:47;47.40;;;24.58;;
47161;SDS011;32921;53.256;8.198;2023-03-01T04:56:13;46.35;;;22.70;;
47161;SDS011;32921;53.256;8.198;2023-03-01T04:58:38;48.05;;;24.35;;
47161;SDS011;32921;53.256;8.198;2023-03-01T05:01:11;49.03;;;23.90;;
47161;SDS011;32921;53.256;8.198;2023-03-01T05:03:45;46.22;;;23.38;;
47161;SDS011;32921;53.256;8.198;2023-03-01T05:06:12;51.42;;;23.55;;
47161;SDS011;32921;53.256;8.198;2023-03-01T05:08:39;47.30;;;23.73;;
47161;SDS011;32921;53.256;8.198;2023-03-01T05:11:05;45.20;;;22.95;;
47161;SDS011;32921;53.256;8.198;2023-03-01T05:13:34;46.17;;;23.80;;
47161;SDS011;32921;53.256;8.198;2023-03-01T05:16:00;46.65;;;22.65;;
47161;SDS011;32921;53.256;8.198;2023-03-01T05:18:28;43.58;;;22.05;;
47161;SDS011;32921;53.256;8.198;2023-03-01T05:23:32;50.63;;;24.40;;
47161;SDS011;32921;53.256;8.198;2023-03-01T05:25:58;45.75;;;23.92;;
47161;SDS011;32921;53.256;8.198;2023-03-01T05:28:25;45.15;;;23.60;;
47161;SDS011;32921;53.256;8.198;2023-03-01T05:30:51;49.78;;;22.83;;
47161;SDS011;32921;53.256;8.198;2023-03-01T05:33:17;49.03;;;22.75;;
47161;SDS011;32921;53.256;8.198;2023-03-01T05:35:43;48.50;;;23.10;;
47161;SDS011;32921;53.256;8.198;2023-03-01T05:38:10;49.72;;;24.42;;
47161;SDS011;32921;53.256;8.198;2023-03-01T05:40:38;48.92;;;23.75;;
47161;SDS011;32921;53.256;8.198;2023-03-01T05:43:05;45.22;;;23.10;;
47161;SDS011;32921;53.256;8.198;2023-03-01T05:45:30;43.67;;;22.58;;
47161;SDS011;32921;53.256;8.198;2023-03-01T05:47:59;44.83;;;22.35;;
47161;SDS011;32921;53.256;8.198;2023-03-01T05:50:26;46.53;;;23.17;;
47161;SDS011;32921;53.256;8.198;2023-03-01T05:55:23;49.58;;;23.90;;
47161;SDS011;32921;53.256;8.198;2023-03-01T05:57:49;49.95;;;24.10;;
47161;SDS011;32921;53.256;8.198;2023-03-01T06:00:16;51.70;;;24.83;;
47161;SDS011;32921;53.256;8.198;2023-03-01T06:02:44;50.88;;;24.48;;
47161;SDS011;32921;53.256;8.198;2023-03-01T06:05:10;48.92;;;24.73;;
47161;SDS011;32921;53.256;8.198;2023-03-01T06:07:37;45.23;;;22.27;;
47161;SDS011;32921;53.256;8.198;2023-03-01T06:10:03;47.83;;;21.83;;
47161;SDS011;32921;53.256;8.198;2023-03-01T06:12:33;42.63;;;22.77;;
47161;SDS011;32921;53.256;8.198;2023-03-01T06:15:00;46.40;;;23.10;;
47161;SDS011;32921;53.256;8.198;2023-03-01T06:17:28;44.70;;;22.02;;
47161;SDS011;32921;53.256;8.198;2023-03-01T06:19:54;43.40;;;22.17;;
47161;SDS011;32921;53.256;8.198;2023-03-01T06:22:20;45.65;;;22.55;;
47161;SDS011;32921;53.256;8.198;2023-03-01T06:24:45;42.03;;;21.60;;
47161;SDS011;32921;53.256;8.198;2023-03-01T06:27:11;42.47;;;21.83;;
47161;SDS011;32921;53.256;8.198;2023-03-01T06:29:36;41.25;;;21.42;;
47161;SDS011;32921;53.256;8.198;2023-03-01T06:32:02;49.67;;;22.17;;
47161;SDS011;32921;53.256;8.198;2023-03-01T06:34:28;45.55;;;24.00;;
47161;SDS011;32921;53.256;8.198;2023-03-01T06:36:54;56.03;;;27.42;;
47161;SDS011;32921;53.256;8.198;2023-03-01T06:39:19;55.03;;;29.05;;
47161;SDS011;32921;53.256;8.198;2023-03-01T06:41:45;56.00;;;28.25;;
47161;SDS011;32921;53.256;8.198;2023-03-01T06:44:10;46.28;;;23.73;;
47161;SDS011;32921;53.256;8.198;2023-03-01T06:46:36;44.17;;;23.27;;
47161;SDS011;32921;53.256;8.198;2023-03-01T06:49:02;49.55;;;25.08;;
47161;SDS011;32921;53.256;8.198;2023-03-01T06:51:32;48.13;;;26.45;;
47161;SDS011;32921;53.256;8.198;2023-03-01T06:53:58;46.65;;;24.17;;
47161;SDS011;32921;53.256;8.198;2023-03-01T06:56:23;47.15;;;23.73;;
47161;SDS011;32921;53.256;8.198;2023-03-01T06:58:49;46.75;;;24.05;;
47161;SDS011;32921;53.256;8.198;2023-03-01T07:01:14;45.80;;;24.85;;
47161;SDS011;32921;53.256;8.198;2023-03-01T07:03:40;52.08;;;26.45;;
47161;SDS011;32921;53.256;8.198;2023-03-01T07:06:06;40.08;;;23.02;;
47161;SDS011;32921;53.256;8.198;2023-03-01T07:08:31;45.05;;;23.48;;
47161;SDS011;32921;53.256;8.198;2023-03-01T07:10:57;40.83;;;22.98;;
47161;SDS011;32921;53.256;8.198;2023-03-01T07:13:23;42.22;;;23.25;;
47161;SDS011;32921;53.256;8.198;2023-03-01T07:15:49;41.60;;;22.52;;
47161;SDS011;32921;53.256;8.198;2023-03-01T07:18:15;44.97;;;24.10;;
47161;SDS011;32921;53.256;8.198;2023-03-01T07:20:40;49.58;;;25.00;;
47161;SDS011;32921;53.256;8.198;2023-03-01T07:23:06;47.75;;;25.27;;
47161;SDS011;32921;53.256;8.198;2023-03-01T07:25:31;44.60;;;25.90;;
47161;SDS011;32921;53.256;8.198;2023-03-01T07:27:58;48.67;;;26.92;;
47161;SDS011;32921;53.256;8.198;2023-03-01T07:30:23;49.00;;;26.75;;
47161;SDS011;32921;53.256;8.198;2023-03-01T07:32:52;45.92;;;25.73;;
47161;SDS011;32921;53.256;8.198;2023-03-01T07:35:18;53.95;;;26.50;;
47161;SDS011;32921;53.256;8.198;2023-03-01T07:37:43;52.75;;;27.50;;
47161;SDS011;32921;53.256;8.198;2023-03-01T07:40:09;50.88;;;27.95;;
47161;SDS011;32921;53.256;8.198;2023-03-01T07:42:35;54.33;;;28.20;;
47161;SDS011;32921;53.256;8.198;2023-03-01T07:45:01;54.60;;;28.27;;
47161;SDS011;32921;53.256;8.198;2023-03-01T07:47:27;51.65;;;28.27;;
47161;SDS011;32921;53.256;8.198;2023-03-01T07:49:52;46.05;;;26.70;;
47161;SDS011;32921;53.256;8.198;2023-03-01T07:52:18;45.83;;;26.15;;
47161;SDS011;32921;53.256;8.198;2023-03-01T07:54:44;53.38;;;28.83;;
47161;SDS011;32921;53.256;8.198;2023-03-01T07:57:09;54.13;;;29.20;;
47161;SDS011;32921;53.256;8.198;2023-03-01T07:59:36;50.40;;;29.27;;
47161;SDS011;32921;53.256;8.198;2023-03-01T08:02:01;69.38;;;37.38;;
47161;SDS011;32921;53.256;8.198;2023-03-01T08:04:27;54.97;;;32.47;;
47161;SDS011;32921;53.256;8.198;2023-03-01T08:06:53;48.83;;;27.90;;
47161;SDS011;32921;53.256;8.198;2023-03-01T08:09:19;45.38;;;27.38;;
47161;SDS011;32921;53.256;8.198;2023-03-01T08:11:45;44.97;;;27.80;;
47161;SDS011;32921;53.256;8.198;2023-03-01T08:14:11;46.45;;;28.40;;
47161;SDS011;32921;53.256;8.198;2023-03-01T08:16:37;48.50;;;28.77;;
47161;SDS011;32921;53.256;8.198;2023-03-01T08:19:06;48.78;;;29.70;;
47161;SDS011;32921;53.256;8.198;2023-03-01T08:21:33;56.70;;;34.05;;
47161;SDS011;32921;53.256;8.198;2023-03-01T08:24:02;56.92;;;34.97;;
47161;SDS011;32921;53.256;8.198;2023-03-01T08:26:29;49.20;;;31.38;;
47161;SDS011;32921;53.256;8.198;2023-03-01T08:28:54;49.63;;;31.48;;
47161;SDS011;32921;53.256;8.198;2023-03-01T08:33:50;51.28;;;32.40;;
47161;SDS011;32921;53.256;8.198;2023-03-01T08:36:20;56.55;;;36.55;;
47161;SDS011;32921;53.256;8.198;2023-03-01T08:38:49;53.72;;;33.20;;
47161;SDS011;32921;53.256;8.198;2023-03-01T08:41:15;49.50;;;31.52;;
47161;SDS011;32921;53.256;8.198;2023-03-01T08:43:41;47.35;;;29.88;;
47161;SDS011;32921;53.256;8.198;2023-03-01T08:46:07;44.80;;;30.10;;
47161;SDS011;32921;53.256;8.198;2023-03-01T08:48:32;41.53;;;27.58;;
47161;SDS011;32921;53.256;8.198;2023-03-01T08:51:08;42.70;;;27.05;;
47161;SDS011;32921;53.256;8.198;2023-03-01T08:53:36;47.25;;;28.95;;
47161;SDS011;32921;53.256;8.198;2023-03-01T08:56:02;49.92;;;30.83;;
47161;SDS011;32921;53.256;8.198;2023-03-01T08:58:28;50.67;;;32.25;;
47161;SDS011;32921;53.256;8.198;2023-03-01T09:00:53;48.85;;;30.48;;
47161;SDS011;32921;53.256;8.198;2023-03-01T09:03:21;52.22;;;30.55;;
47161;SDS011;32921;53.256;8.198;2023-03-01T09:05:47;49.15;;;30.05;;
47161;SDS011;32921;53.256;8.198;2023-03-01T09:08:15;46.47;;;29.80;;
47161;SDS011;32921;53.256;8.198;2023-03-01T09:10:41;42.45;;;27.95;;
47161;SDS011;32921;53.256;8.198;2023-03-01T09:13:07;43.83;;;27.73;;
47161;SDS011;32921;53.256;8.198;2023-03-01T09:15:33;40.70;;;25.13;;
47161;SDS011;32921;53.256;8.198;2023-03-01T09:17:59;42.53;;;24.70;;
47161;SDS011;32921;53.256;8.198;2023-03-01T09:20:24;45.67;;;26.50;;
47161;SDS011;32921;53.256;8.198;2023-03-01T09:22:50;43.63;;;27.02;;
47161;SDS011;32921;53.256;8.198;2023-03-01T09:25:15;44.63;;;27.98;;
47161;SDS011;32921;53.256;8.198;2023-03-01T09:27:41;47.70;;;28.42;;
47161;SDS011;32921;53.256;8.198;2023-03-01T09:30:07;43.35;;;27.65;;
47161;SDS011;32921;53.256;8.198;2023-03-01T09:32:33;47.33;;;29.65;;
47161;SDS011;32921;53.256;8.198;2023-03-01T09:34:58;43.30;;;28.67;;
47161;SDS011;32921;53.256;8.198;2023-03-01T09:37:29;43.22;;;27.90;;
47161;SDS011;32921;53.256;8.198;2023-03-01T09:39:57;40.88;;;25.65;;
47161;SDS011;32921;53.256;8.198;2023-03-01T09:42:22;45.20;;;26.55;;
47161;SDS011;32921;53.256;8.198;2023-03-01T09:44:55;36.35;;;21.10;;
47161;SDS011;32921;53.256;8.198;2023-03-01T09:47:30;26.00;;;15.52;;
47161;SDS011;32921;53.256;8.198;2023-03-01T09:55:25;23.70;;;14.32;;
47161;SDS011;32921;53.256;8.198;2023-03-01T09:58:06;27.02;;;17.67;;
47161;SDS011;32921;53.256;8.198;2023-03-01T10:00:43;28.10;;;17.88;;
47161;SDS011;32921;53.256;8.198;2023-03-01T10:08:50;21.92;;;12.93;;
47161;SDS011;32921;53.256;8.198;2023-03-01T10:11:22;19.83;;;11.95;;
47161;SDS011;32921;53.256;8.198;2023-03-01T10:16:36;22.02;;;12.75;;
47161;SDS011;32921;53.256;8.198;2023-03-01T10:22:21;19.80;;;10.95;;
47161;SDS011;32921;53.256;8.198;2023-03-01T10:24:53;18.30;;;11.15;;
47161;SDS011;32921;53.256;8.198;2023-03-01T10:27:24;21.88;;;12.60;;
47161;SDS011;32921;53.256;8.198;2023-03-01T10:30:12;20.25;;;13.13;;
47161;SDS011;32921;53.256;8.198;2023-03-01T10:32:44;19.58;;;12.93;;
47161;SDS011;32921;53.256;8.198;2023-03-01T10:37:57;21.90;;;14.02;;
47161;SDS011;32921;53.256;8.198;2023-03-01T10:40:31;21.25;;;12.20;;
47161;SDS011;32921;53.256;8.198;2023-03-01T10:42:58;18.83;;;11.10;;
47161;SDS011;32921;53.256;8.198;2023-03-01T10:45:31;21.45;;;12.68;;
47161;SDS011;32921;53.256;8.198;2023-03-01T10:48:11;18.40;;;10.55;;
47161;SDS011;32921;53.256;8.198;2023-03-01T10:50:45;17.33;;;10.82;;
47161;SDS011;32921;53.256;8.198;2023-03-01T10:53:20;16.58;;;10.25;;
47161;SDS011;32921;53.256;8.198;2023-03-01T10:56:06;22.38;;;12.43;;
47161;SDS011;32921;53.256;8.198;2023-03-01T10:58:38;22.30;;;12.15;;
47161;SDS011;32921;53.256;8.198;2023-03-01T11:01:39;21.38;;;11.98;;
47161;SDS011;32921;53.256;8.198;2023-03-01T11:04:17;19.95;;;11.93;;
47161;SDS011;32921;53.256;8.198;2023-03-01T11:06:43;21.08;;;11.85;;
47161;SDS011;32921;53.256;8.198;2023-03-01T11:09:23;19.75;;;10.73;;
47161;SDS011;32921;53.256;8.198;2023-03-01T11:11:56;19.00;;;11.52;;
47161;SDS011;32921;53.256;8.198;2023-03-01T11:14:24;20.15;;;12.02;;
47161;SDS011;32921;53.256;8.198;2023-03-01T11:16:58;15.43;;;7.03;;
47161;SDS011;32921;53.256;8.198;2023-03-01T11:19:37;18.33;;;11.90;;
47161;SDS011;32921;53.256;8.198;2023-03-01T11:24:37;20.42;;;12.38;;
47161;SDS011;32921;53.256;8.198;2023-03-01T11:27:23;21.67;;;12.82;;
47161;SDS011;32921;53.256;8.198;2023-03-01T11:29:55;17.73;;;10.65;;
47161;SDS011;32921;53.256;8.198;2023-03-01T11:32:32;18.00;;;11.10;;
47161;SDS011;32921;53.256;8.198;2023-03-01T11:37:53;20.98;;;12.73;;
47161;SDS011;32921;53.256;8.198;2023-03-01T11:40:31;21.23;;;11.98;;
47161;SDS011;32921;53.256;8.198;2023-03-01T11:43:19;21.77;;;12.63;;
47161;SDS011;32921;53.256;8.198;2023-03-01T11:51:44;21.05;;;13.38;;
47161;SDS011;32921;53.256;8.198;2023-03-01T11:54:33;19.52;;;13.07;;
47161;SDS011;32921;53.256;8.198;2023-03-01T11:57:42;20.75;;;12.88;;
47161;SDS011;32921;53.256;8.198;2023-03-01T12:03:26;22.42;;;12.52;;
47161;SDS011;32921;53.256;8.198;2023-03-01T12:17:31;23.08;;;12.43;;
47161;SDS011;32921;53.256;8.198;2023-03-01T12:20:13;19.58;;;10.65;;
47161;SDS011;32921;53.256;8.198;2023-03-01T12:25:25;17.98;;;10.43;;
47161;SDS011;32921;53.256;8.198;2023-03-01T12:35:51;16.20;;;9.75;;
47161;SDS011;32921;53.256;8.198;2023-03-01T12:38:42;15.32;;;10.00;;
47161;SDS011;32921;53.256;8.198;2023-03-01T12:49:05;14.20;;;8.00;;
47161;SDS011;32921;53.256;8.198;2023-03-01T12:51:42;15.68;;;9.77;;
47161;SDS011;32921;53.256;8.198;2023-03-01T12:54:19;20.55;;;12.38;;
47161;SDS011;32921;53.256;8.198;2023-03-01T12:56:50;20.27;;;12.43;;
47161;SDS011;32921;53.256;8.198;2023-03-01T12:59:22;19.80;;;13.05;;
47161;SDS011;32921;53.256;8.198;2023-03-01T13:02:26;20.58;;;12.30;;
47161;SDS011;32921;53.256;8.198;2023-03-01T13:10:56;22.70;;;12.70;;
47161;SDS011;32921;53.256;8.198;2023-03-01T13:13:26;21.38;;;14.05;;
47161;SDS011;32921;53.256;8.198;2023-03-01T13:15:53;23.92;;;15.30;;
47161;SDS011;32921;53.256;8.198;2023-03-01T13:20:47;14.90;;;9.02;;
47161;SDS011;32921;53.256;8.198;2023-03-01T13:31:01;23.08;;;15.75;;
47161;SDS011;32921;53.256;8.198;2023-03-01T13:35:55;26.85;;;16.88;;
47161;SDS011;32921;53.256;8.198;2023-03-01T13:38:38;27.58;;;17.38;;
47161;SDS011;32921;53.256;8.198;2023-03-01T13:41:47;27.23;;;16.83;;
47161;SDS011;32921;53.256;8.198;2023-03-01T13:44:13;25.35;;;15.18;;
47161;SDS011;32921;53.256;8.198;2023-03-01T13:46:49;27.05;;;16.17;;
47161;SDS011;32921;53.256;8.198;2023-03-01T13:49:21;29.70;;;17.77;;
47161;SDS011;32921;53.256;8.198;2023-03-01T13:51:51;26.05;;;17.38;;
47161;SDS011;32921;53.256;8.198;2023-03-01T13:54:22;27.75;;;18.63;;
47161;SDS011;32921;53.256;8.198;2023-03-01T13:56:55;27.08;;;17.55;;
47161;SDS011;32921;53.256;8.198;2023-03-01T13:59:22;27.23;;;16.52;;
47161;SDS011;32921;53.256;8.198;2023-03-01T14:01:55;24.48;;;15.35;;
47161;SDS011;32921;53.256;8.198;2023-03-01T14:04:25;27.42;;;17.17;;
47161;SDS011;32921;53.256;8.198;2023-03-01T14:07:11;23.92;;;15.90;;
47161;SDS011;32921;53.256;8.198;2023-03-01T14:09:43;22.85;;;13.95;;
47161;SDS011;32921;53.256;8.198;2023-03-01T14:12:15;27.33;;;13.80;;
47161;SDS011;32921;53.256;8.198;2023-03-01T14:15:09;26.40;;;16.58;;
47161;SDS011;32921;53.256;8.198;2023-03-01T14:18:14;25.48;;;15.63;;
47161;SDS011;32921;53.256;8.198;2023-03-01T14:20:47;29.45;;;18.60;;
47161;SDS011;32921;53.256;8.198;2023-03-01T14:23:17;30.40;;;18.20;;
47161;SDS011;32921;53.256;8.198;2023-03-01T14:25:48;26.88;;;17.02;;
47161;SDS011;32921;53.256;8.198;2023-03-01T14:28:16;30.30;;;18.65;;
47161;SDS011;32921;53.256;8.198;2023-03-01T14:30:56;18.20;;;11.50;;
47161;SDS011;32921;53.256;8.198;2023-03-01T14:33:28;26.98;;;17.10;;
47161;SDS011;32921;53.256;8.198;2023-03-01T14:38:39;29.48;;;18.42;;
47161;SDS011;32921;53.256;8.198;2023-03-01T14:41:16;29.80;;;18.40;;
47161;SDS011;32921;53.256;8.198;2023-03-01T14:44:07;28.98;;;18.25;;
47161;SDS011;32921;53.256;8.198;2023-03-01T14:46:36;29.33;;;16.52;;
47161;SDS011;32921;53.256;8.198;2023-03-01T14:49:10;32.90;;;18.10;;
47161;SDS011;32921;53.256;8.198;2023-03-01T14:52:04;24.00;;;14.68;;
47161;SDS011;32921;53.256;8.198;2023-03-01T14:54:36;28.23;;;18.30;;
47161;SDS011;32921;53.256;8.198;2023-03-01T14:57:12;28.05;;;17.58;;
47161;SDS011;32921;53.256;8.198;2023-03-01T15:02:25;26.48;;;16.88;;
47161;SDS011;32921;53.256;8.198;2023-03-01T15:04:56;28.50;;;18.02;;
47161;SDS011;32921;53.256;8.198;2023-03-01T15:07:39;28.08;;;17.60;;
47161;SDS011;32921;53.256;8.198;2023-03-01T15:10:07;32.45;;;18.48;;
47161;SDS011;32921;53.256;8.198;2023-03-01T15:12:44;27.02;;;17.70;;
47161;SDS011;32921;53.256;8.198;2023-03-01T15:15:29;27.23;;;17.88;;
47161;SDS011;32921;53.256;8.198;2023-03-01T15:17:58;29.75;;;18.40;;
47161;SDS011;32921;53.256;8.198;2023-03-01T15:20:27;28.98;;;17.20;;
47161;SDS011;32921;53.256;8.198;2023-03-01T15:22:55;24.50;;;15.00;;
47161;SDS011;32921;53.256;8.198;2023-03-01T15:25:22;24.30;;;15.93;;
47161;SDS011;32921;53.256;8.198;2023-03-01T15:27:50;28.95;;;19.35;;
47161;SDS011;32921;53.256;8.198;2023-03-01T15:30:22;28.60;;;19.02;;
47161;SDS011;32921;53.256;8.198;2023-03-01T15:38:57;24.70;;;16.75;;
47161;SDS011;32921;53.256;8.198;2023-03-01T15:41:32;29.40;;;18.77;;
47161;SDS011;32921;53.256;8.198;2023-03-01T15:46:52;24.38;;;17.33;;
47161;SDS011;32921;53.256;8.198;2023-03-01T15:50:03;26.50;;;18.25;;
47161;SDS011;32921;53.256;8.198;2023-03-01T15:52:05;28.17;;;18.02;;
47161;SDS011;32921;53.256;8.198;2023-03-01T15:54:38;23.50;;;14.75;;
47161;SDS011;32921;53.256;8.198;2023-03-01T15:57:07;25.83;;;13.75;;
47161;SDS011;32921;53.256;8.198;2023-03-01T15:59:38;26.35;;;16.50;;
47161;SDS011;32921;53.256;8.198;2023-03-01T16:02:08;29.40;;;18.27;;
47161;SDS011;32921;53.256;8.198;2023-03-01T16:04:40;26.40;;;18.92;;
47161;SDS011;32921;53.256;8.198;2023-03-01T16:07:05;27.50;;;18.48;;
47161;SDS011;32921;53.256;8.198;2023-03-01T16:09:31;27.88;;;19.50;;
47161;SDS011;32921;53.256;8.198;2023-03-01T16:11:57;27.08;;;17.17;;
47161;SDS011;32921;53.256;8.198;2023-03-01T16:14:23;30.33;;;19.10;;
47161;SDS011;32921;53.256;8.198;2023-03-01T16:16:48;32.22;;;20.70;;
47161;SDS011;32921;53.256;8.198;2023-03-01T16:19:14;29.88;;;17.77;;
47161;SDS011;32921;53.256;8.198;2023-03-01T16:21:40;29.10;;;19.13;;
47161;SDS011;32921;53.256;8.198;2023-03-01T16:24:11;30.42;;;19.65;;
47161;SDS011;32921;53.256;8.198;2023-03-01T16:26:37;35.20;;;20.65;;
47161;SDS011;32921;53.256;8.198;2023-03-01T16:29:03;26.92;;;19.08;;
47161;SDS011;32921;53.256;8.198;2023-03-01T16:31:29;33.53;;;19.65;;